createdAt,value
2023-05-19T00:00:39.970Z,95337.00
2023-05-19T00:01:40.026Z,95337.00
2023-05-19T00:02:40.219Z,95338.00
2023-05-19T00:03:40.149Z,95336.00
2023-05-19T00:04:40.170Z,95336.00
2023-05-19T00:05:40.252Z,95333.00
2023-05-19T00:06:40.263Z,95331.00
2023-05-19T00:07:40.309Z,95330.00
2023-05-19T00:08:40.368Z,95330.00
2023-05-19T00:09:40.444Z,95329.00
2023-05-19T00:10:40.500Z,95328.00
2023-05-19T00:11:40.568Z,95328.00
2023-05-19T00:12:40.585Z,95329.00
2023-05-19T00:13:40.648Z,95327.00
2023-05-19T00:14:40.702Z,95327.00
2023-05-19T00:15:40.752Z,95328.00
2023-05-19T00:16:40.815Z,95329.00
2023-05-19T00:17:40.888Z,95329.00
2023-05-19T00:18:40.907Z,95330.00
2023-05-19T00:19:40.864Z,95331.00
2023-05-19T00:20:40.858Z,95332.00
2023-05-19T00:21:40.866Z,95331.00
2023-05-19T00:22:40.873Z,95333.00
2023-05-19T00:23:40.929Z,95333.00
2023-05-19T00:24:40.989Z,95334.00
2023-05-19T00:25:40.973Z,95333.00
2023-05-19T00:26:40.973Z,95334.00
2023-05-19T00:27:41.017Z,95335.00
2023-05-19T00:28:41.025Z,95333.00
2023-05-19T00:29:41.029Z,95335.00
2023-05-19T00:30:41.042Z,95333.00
2023-05-19T00:31:41.056Z,95337.00
2023-05-19T00:32:41.127Z,95334.00
2023-05-19T00:33:41.105Z,95337.00
2023-05-19T00:34:41.079Z,95334.00
2023-05-19T00:35:41.185Z,95335.00
2023-05-19T00:36:41.235Z,95336.00
2023-05-19T00:37:41.193Z,95335.00
2023-05-19T00:38:41.186Z,95335.00
2023-05-19T00:39:41.212Z,95333.00
2023-05-19T00:40:41.208Z,95332.00
2023-05-19T00:41:41.246Z,95333.00
2023-05-19T00:42:41.270Z,95332.00
2023-05-19T00:43:41.251Z,95333.00
2023-05-19T00:44:41.245Z,95330.00
2023-05-19T00:45:41.232Z,95329.00
2023-05-19T00:46:41.306Z,95327.00
2023-05-19T00:47:41.322Z,95328.00
2023-05-19T00:48:41.264Z,95327.00
2023-05-19T00:49:41.266Z,95327.00
2023-05-19T00:50:41.272Z,95327.00
2023-05-19T00:51:41.275Z,95324.00
2023-05-19T00:52:41.255Z,95325.00
2023-05-19T00:53:41.273Z,95324.00
2023-05-19T00:54:41.287Z,95323.00
2023-05-19T00:55:41.262Z,95323.00
2023-05-19T00:56:41.304Z,95321.00
2023-05-19T00:57:41.377Z,95322.00
2023-05-19T00:58:41.366Z,95320.00
2023-05-19T00:59:41.404Z,95320.00
2023-05-19T01:00:41.426Z,95319.00
2023-05-19T01:01:41.372Z,95317.00
2023-05-19T01:02:41.462Z,95319.00
2023-05-19T01:03:41.590Z,95317.00
2023-05-19T01:04:41.526Z,95319.00
2023-05-19T01:05:41.621Z,95323.00
2023-05-19T01:06:41.557Z,95322.00
2023-05-19T01:07:41.561Z,95323.00
2023-05-19T01:08:41.516Z,95322.00
2023-05-19T01:09:41.630Z,95320.00
2023-05-19T01:10:41.711Z,95322.00
2023-05-19T01:11:41.847Z,95323.00
2023-05-19T01:12:41.944Z,95323.00
2023-05-19T01:13:42.395Z,95321.00
2023-05-19T01:14:42.127Z,95321.00
2023-05-19T01:15:42.214Z,95319.00
2023-05-19T01:16:42.376Z,95320.00
2023-05-19T01:17:42.441Z,95320.00
2023-05-19T01:18:42.477Z,95320.00
2023-05-19T01:19:42.486Z,95320.00
2023-05-19T01:20:42.458Z,95320.00
2023-05-19T01:21:42.486Z,95322.00
2023-05-19T01:22:42.516Z,95320.00
2023-05-19T01:23:42.554Z,95319.00
2023-05-19T01:24:42.548Z,95315.00
2023-05-19T01:25:42.543Z,95316.00
2023-05-19T01:26:42.586Z,95318.00
2023-05-19T01:27:42.554Z,95320.00
2023-05-19T01:28:42.554Z,95320.00
2023-05-19T01:29:42.552Z,95317.00
2023-05-19T01:30:42.579Z,95317.00
2023-05-19T01:31:42.652Z,95317.00
2023-05-19T01:32:42.613Z,95318.00
2023-05-19T01:33:42.667Z,95317.00
2023-05-19T01:34:42.748Z,95318.00
2023-05-19T01:35:42.757Z,95318.00
2023-05-19T01:36:42.782Z,95317.00
2023-05-19T01:37:42.743Z,95318.00
2023-05-19T01:38:42.794Z,95318.00
2023-05-19T01:39:42.817Z,95318.00
2023-05-19T01:40:42.873Z,95318.00
2023-05-19T01:41:43.003Z,95317.00
2023-05-19T01:42:43.077Z,95317.00
2023-05-19T01:43:43.146Z,95317.00
2023-05-19T01:44:43.150Z,95316.00
2023-05-19T01:45:43.189Z,95316.00
2023-05-19T01:46:43.178Z,95318.00
2023-05-19T01:47:43.202Z,95316.00
2023-05-19T01:48:43.277Z,95318.00
2023-05-19T01:49:43.354Z,95317.00
2023-05-19T01:50:43.462Z,95320.00
2023-05-19T01:51:43.535Z,95318.00
2023-05-19T01:52:43.661Z,95318.00
2023-05-19T01:53:43.697Z,95320.00
2023-05-19T01:54:43.688Z,95318.00
2023-05-19T01:55:43.689Z,95320.00
2023-05-19T01:56:43.892Z,95320.00
2023-05-19T01:57:43.688Z,95319.00
2023-05-19T01:58:43.758Z,95318.00
2023-05-19T01:59:43.781Z,95320.00
2023-05-19T02:00:43.826Z,95321.00
2023-05-19T02:01:43.918Z,95320.00
2023-05-19T02:02:43.884Z,95319.00
2023-05-19T02:03:43.872Z,95320.00
2023-05-19T02:04:44.034Z,95320.00
2023-05-19T02:05:43.955Z,95322.00
2023-05-19T02:06:43.928Z,95323.00
2023-05-19T02:07:44.007Z,95324.00
2023-05-19T02:08:43.982Z,95323.00
2023-05-19T02:09:44.008Z,95324.00
2023-05-19T02:10:44.034Z,95324.00
2023-05-19T02:11:44.067Z,95324.00
2023-05-19T02:12:44.118Z,95324.00
2023-05-19T02:13:44.121Z,95322.00
2023-05-19T02:14:44.148Z,95324.00
2023-05-19T02:15:44.208Z,95325.00
2023-05-19T02:16:44.218Z,95326.00
2023-05-19T02:17:44.258Z,95328.00
2023-05-19T02:18:44.219Z,95327.00
2023-05-19T02:19:44.241Z,95328.00
2023-05-19T02:20:44.290Z,95327.00
2023-05-19T02:21:44.316Z,95330.00
2023-05-19T02:22:44.317Z,95329.00
2023-05-19T02:23:44.317Z,95329.00
2023-05-19T02:24:44.344Z,95328.00
2023-05-19T02:25:44.338Z,95328.00
2023-05-19T02:26:44.365Z,95328.00
2023-05-19T02:27:44.394Z,95327.00
2023-05-19T02:28:44.393Z,95328.00
2023-05-19T02:29:44.438Z,95327.00
2023-05-19T02:30:44.412Z,95327.00
2023-05-19T02:31:44.438Z,95326.00
2023-05-19T02:32:44.518Z,95328.00
2023-05-19T02:33:44.513Z,95328.00
2023-05-19T02:34:44.525Z,95327.00
2023-05-19T02:35:44.529Z,95327.00
2023-05-19T02:36:44.580Z,95326.00
2023-05-19T02:37:44.575Z,95327.00
2023-05-19T02:38:44.627Z,95326.00
2023-05-19T02:39:44.622Z,95324.00
2023-05-19T02:40:44.680Z,95326.00
2023-05-19T02:41:44.680Z,95324.00
2023-05-19T02:42:44.701Z,95326.00
2023-05-19T02:43:44.740Z,95327.00
2023-05-19T02:44:44.741Z,95325.00
2023-05-19T02:45:44.765Z,95325.00
2023-05-19T02:46:44.956Z,95325.00
2023-05-19T02:47:44.850Z,95324.00
2023-05-19T02:48:44.832Z,95325.00
2023-05-19T02:49:44.826Z,95325.00
2023-05-19T02:50:44.836Z,95324.00
2023-05-19T02:51:44.915Z,95322.00
2023-05-19T02:52:44.901Z,95321.00
2023-05-19T02:53:44.915Z,95319.00
2023-05-19T02:54:44.923Z,95318.00
2023-05-19T02:55:44.933Z,95319.00
2023-05-19T02:56:44.957Z,95315.00
2023-05-19T02:57:44.947Z,95319.00
2023-05-19T02:58:44.999Z,95318.00
2023-05-19T02:59:45.001Z,95315.00
2023-05-19T03:00:45.009Z,95317.00
2023-05-19T03:01:45.132Z,95317.00
2023-05-19T03:02:45.184Z,95314.00
2023-05-19T03:03:45.132Z,95316.00
2023-05-19T03:04:45.116Z,95315.00
2023-05-19T03:05:45.137Z,95313.00
2023-05-19T03:06:45.140Z,95312.00
2023-05-19T03:07:45.186Z,95311.00
2023-05-19T03:08:45.199Z,95311.00
2023-05-19T03:09:45.219Z,95308.00
2023-05-19T03:10:45.217Z,95307.00
2023-05-19T03:11:45.255Z,95306.00
2023-05-19T03:12:45.287Z,95307.00
2023-05-19T03:13:45.316Z,95307.00
2023-05-19T03:14:45.320Z,95308.00
2023-05-19T03:15:45.360Z,95307.00
2023-05-19T03:16:45.788Z,95307.00
2023-05-19T03:17:45.616Z,95306.00
2023-05-19T03:18:45.506Z,95306.00
2023-05-19T03:19:45.448Z,95307.00
2023-05-19T03:20:45.483Z,95307.00
2023-05-19T03:21:45.945Z,95308.00
2023-05-19T03:22:45.513Z,95306.00
2023-05-19T03:23:45.530Z,95305.00
2023-05-19T03:24:45.576Z,95307.00
2023-05-19T03:25:45.577Z,95304.00
2023-05-19T03:26:45.597Z,95305.00
2023-05-19T03:27:45.650Z,95304.00
2023-05-19T03:28:45.666Z,95305.00
2023-05-19T03:29:45.692Z,95304.00
2023-05-19T03:30:45.733Z,95305.00
2023-05-19T03:31:45.794Z,95306.00
2023-05-19T03:32:45.846Z,95308.00
2023-05-19T03:33:45.857Z,95306.00
2023-05-19T03:34:45.855Z,95307.00
2023-05-19T03:35:45.898Z,95307.00
2023-05-19T03:36:45.929Z,95307.00
2023-05-19T03:37:45.938Z,95308.00
2023-05-19T03:38:46.002Z,95307.00
2023-05-19T03:39:46.008Z,95309.00
2023-05-19T03:40:46.072Z,95307.00
2023-05-19T03:41:46.101Z,95305.00
2023-05-19T03:42:46.117Z,95304.00
2023-05-19T03:43:46.159Z,95306.00
2023-05-19T03:44:46.214Z,95305.00
2023-05-19T03:45:46.283Z,95304.00
2023-05-19T03:46:46.255Z,95306.00
2023-05-19T03:47:46.372Z,95306.00
2023-05-19T03:48:46.360Z,95304.00
2023-05-19T03:49:46.400Z,95303.00
2023-05-19T03:50:46.443Z,95303.00
2023-05-19T03:51:46.494Z,95302.00
2023-05-19T03:52:46.528Z,95304.00
2023-05-19T03:53:46.557Z,95304.00
2023-05-19T03:54:46.576Z,95305.00
2023-05-19T03:55:46.635Z,95306.00
2023-05-19T03:56:46.716Z,95309.00
2023-05-19T03:57:46.719Z,95309.00
2023-05-19T03:58:46.733Z,95310.00
2023-05-19T03:59:46.841Z,95311.00
2023-05-19T04:00:46.831Z,95314.00
2023-05-19T04:01:46.912Z,95313.00
2023-05-19T04:02:47.021Z,95315.00
2023-05-19T04:03:47.027Z,95314.00
2023-05-19T04:04:47.120Z,95314.00
2023-05-19T04:05:47.042Z,95313.00
2023-05-19T04:06:47.158Z,95308.00
2023-05-19T04:07:47.176Z,95307.00
2023-05-19T04:08:47.201Z,95308.00
2023-05-19T04:09:47.242Z,95305.00
2023-05-19T04:10:47.297Z,95308.00
2023-05-19T04:11:47.317Z,95308.00
2023-05-19T04:12:47.401Z,95308.00
2023-05-19T04:13:47.511Z,95308.00
2023-05-19T04:14:47.450Z,95305.00
2023-05-19T04:15:47.590Z,95305.00
2023-05-19T04:16:47.579Z,95302.00
2023-05-19T04:17:47.664Z,95305.00
2023-05-19T04:18:47.658Z,95304.00
2023-05-19T04:19:47.676Z,95307.00
2023-05-19T04:20:47.731Z,95307.00
2023-05-19T04:21:47.805Z,95308.00
2023-05-19T04:22:47.819Z,95308.00
2023-05-19T04:23:47.868Z,95308.00
2023-05-19T04:24:47.899Z,95309.00
2023-05-19T04:25:47.933Z,95311.00
2023-05-19T04:26:47.967Z,95312.00
2023-05-19T04:27:48.030Z,95312.00
2023-05-19T04:28:48.108Z,95314.00
2023-05-19T04:29:48.144Z,95313.00
2023-05-19T04:30:48.178Z,95315.00
2023-05-19T04:31:48.250Z,95315.00
2023-05-19T04:32:48.347Z,95318.00
2023-05-19T04:33:48.349Z,95319.00
2023-05-19T04:34:48.402Z,95318.00
2023-05-19T04:35:48.429Z,95317.00
2023-05-19T04:36:49.148Z,95317.00
2023-05-19T04:37:48.514Z,95319.00
2023-05-19T04:38:49.474Z,95320.00
2023-05-19T04:39:48.604Z,95320.00
2023-05-19T04:40:48.682Z,95318.00
2023-05-19T04:41:48.753Z,95320.00
2023-05-19T04:42:48.781Z,95318.00
2023-05-19T04:43:48.827Z,95320.00
2023-05-19T04:44:48.882Z,95321.00
2023-05-19T04:45:48.937Z,95322.00
2023-05-19T04:46:48.980Z,95321.00
2023-05-19T04:47:49.064Z,95319.00
2023-05-19T04:48:49.049Z,95320.00
2023-05-19T04:49:49.106Z,95320.00
2023-05-19T04:50:49.169Z,95318.00
2023-05-19T04:51:49.193Z,95316.00
2023-05-19T04:52:49.204Z,95317.00
2023-05-19T04:53:49.277Z,95319.00
2023-05-19T04:54:49.298Z,95320.00
2023-05-19T04:55:49.306Z,95322.00
2023-05-19T04:56:49.331Z,95323.00
2023-05-19T04:57:49.352Z,95322.00
2023-05-19T04:58:49.391Z,95321.00
2023-05-19T04:59:49.460Z,95322.00
2023-05-19T05:00:49.561Z,95316.00
2023-05-19T05:01:49.673Z,95316.00
2023-05-19T05:02:49.822Z,95314.00
2023-05-19T05:03:49.758Z,95315.00
2023-05-19T05:04:49.776Z,95318.00
2023-05-19T05:05:49.784Z,95319.00
2023-05-19T05:06:49.758Z,95321.00
2023-05-19T05:07:49.781Z,95324.00
2023-05-19T05:08:49.819Z,95324.00
2023-05-19T05:09:49.832Z,95325.00
2023-05-19T05:10:49.800Z,95323.00
2023-05-19T05:11:49.844Z,95320.00
2023-05-19T05:12:49.851Z,95318.00
2023-05-19T05:13:49.868Z,95316.00
2023-05-19T05:14:49.910Z,95318.00
2023-05-19T05:15:49.949Z,95318.00
2023-05-19T05:16:49.981Z,95320.00
2023-05-19T05:17:49.943Z,95319.00
2023-05-19T05:18:49.920Z,95319.00
2023-05-19T05:19:49.933Z,95320.00
2023-05-19T05:20:49.960Z,95319.00
2023-05-19T05:21:50.072Z,95316.00
2023-05-19T05:22:50.021Z,95316.00
2023-05-19T05:23:50.024Z,95312.00
2023-05-19T05:24:50.028Z,95314.00
2023-05-19T05:25:50.019Z,95313.00
2023-05-19T05:26:50.090Z,95311.00
2023-05-19T05:27:50.193Z,95310.00
2023-05-19T05:28:50.081Z,95310.00
2023-05-19T05:29:51.588Z,95312.00
2023-05-19T05:30:50.075Z,95311.00
2023-05-19T05:31:50.107Z,95314.00
2023-05-19T05:32:50.179Z,95314.00
2023-05-19T05:33:50.212Z,95313.00
2023-05-19T05:34:50.168Z,95313.00
2023-05-19T05:35:50.192Z,95311.00
2023-05-19T05:36:50.191Z,95313.00
2023-05-19T05:37:50.182Z,95308.00
2023-05-19T05:38:50.235Z,95309.00
2023-05-19T05:39:50.232Z,95308.00
2023-05-19T05:40:50.278Z,95309.00
2023-05-19T05:41:50.250Z,95308.00
2023-05-19T05:42:50.416Z,95308.00
2023-05-19T05:43:50.341Z,95307.00
2023-05-19T05:44:50.342Z,95309.00
2023-05-19T05:45:50.379Z,95308.00
2023-05-19T05:46:50.384Z,95310.00
2023-05-19T05:47:50.458Z,95308.00
2023-05-19T05:48:50.449Z,95308.00
2023-05-19T05:49:52.110Z,95305.00
2023-05-19T05:50:50.474Z,95309.00
2023-05-19T05:52:01.814Z,95307.00
2023-05-19T05:52:51.442Z,95306.00
2023-05-19T05:53:50.457Z,95305.00
2023-05-19T05:54:50.396Z,95306.00
2023-05-19T05:55:50.409Z,95303.00
2023-05-19T05:56:50.413Z,95304.00
2023-05-19T05:57:50.393Z,95303.00
2023-05-19T05:58:50.389Z,95302.00
2023-05-19T05:59:50.394Z,95304.00
2023-05-19T06:00:50.382Z,95303.00
2023-05-19T06:01:50.350Z,95303.00
2023-05-19T06:02:50.489Z,95302.00
2023-05-19T06:03:50.399Z,95303.00
2023-05-19T06:04:50.360Z,95302.00
2023-05-19T06:05:50.434Z,95302.00
2023-05-19T06:06:50.340Z,95302.00
2023-05-19T06:07:50.332Z,95300.00
2023-05-19T06:08:50.320Z,95300.00
2023-05-19T06:09:50.347Z,95297.00
2023-05-19T06:10:50.351Z,95298.00
2023-05-19T06:11:50.401Z,95300.00
2023-05-19T06:12:50.428Z,95299.00
2023-05-19T06:13:50.468Z,95300.00
2023-05-19T06:14:50.539Z,95300.00
2023-05-19T06:15:50.632Z,95299.00
2023-05-19T06:16:50.658Z,95297.00
2023-05-19T06:17:50.835Z,95299.00
2023-05-19T06:18:50.809Z,95303.00
2023-05-19T06:19:50.851Z,95306.00
2023-05-19T06:20:50.884Z,95306.00
2023-05-19T06:21:50.965Z,95305.00
2023-05-19T06:22:51.040Z,95307.00
2023-05-19T06:23:51.109Z,95305.00
2023-05-19T06:24:51.149Z,95307.00
2023-05-19T06:25:51.179Z,95306.00
2023-05-19T06:26:51.232Z,95309.00
2023-05-19T06:27:51.330Z,95309.00
2023-05-19T06:28:51.424Z,95312.00
2023-05-19T06:29:51.460Z,95309.00
2023-05-19T06:30:51.505Z,95306.00
2023-05-19T06:31:51.726Z,95304.00
2023-05-19T06:32:51.628Z,95305.00
2023-05-19T06:33:51.689Z,95303.00
2023-05-19T06:34:51.732Z,95300.00
2023-05-19T06:35:51.782Z,95299.00
2023-05-19T06:36:51.801Z,95300.00
2023-05-19T06:37:51.857Z,95299.00
2023-05-19T06:38:51.937Z,95299.00
2023-05-19T06:39:51.963Z,95298.00
2023-05-19T06:40:52.024Z,95299.00
2023-05-19T06:41:52.076Z,95298.00
2023-05-19T06:42:52.171Z,95297.00
2023-05-19T06:43:52.208Z,95297.00
2023-05-19T06:44:52.250Z,95299.00
2023-05-19T06:45:52.306Z,95299.00
2023-05-19T06:46:52.449Z,95300.00
2023-05-19T06:47:52.463Z,95301.00
2023-05-19T06:48:52.468Z,95302.00
2023-05-19T06:49:52.516Z,95300.00
2023-05-19T06:50:52.593Z,95298.00
2023-05-19T06:51:52.601Z,95301.00
2023-05-19T06:52:52.675Z,95299.00
2023-05-19T06:53:52.709Z,95298.00
2023-05-19T06:54:52.786Z,95300.00
2023-05-19T06:55:59.319Z,95298.00
2023-05-19T06:56:53.811Z,95300.00
2023-05-19T06:57:52.948Z,95297.00
2023-05-19T06:58:52.822Z,95297.00
2023-05-19T06:59:52.810Z,95296.00
2023-05-19T07:00:52.778Z,95293.00
2023-05-19T07:01:53.001Z,95292.00
2023-05-19T07:02:52.873Z,95293.00
2023-05-19T07:03:52.850Z,95290.00
2023-05-19T07:04:52.793Z,95292.00
2023-05-19T07:05:52.755Z,95292.00
2023-05-19T07:06:52.787Z,95293.00
2023-05-19T07:07:52.848Z,95291.00
2023-05-19T07:08:52.899Z,95293.00
2023-05-19T07:09:52.959Z,95291.00
2023-05-19T07:10:52.953Z,95291.00
2023-05-19T07:11:53.044Z,95293.00
2023-05-19T07:12:53.064Z,95293.00
2023-05-19T07:13:53.133Z,95294.00
2023-05-19T07:14:53.173Z,95296.00
2023-05-19T07:15:53.298Z,95294.00
2023-05-19T07:16:53.321Z,95293.00
2023-05-19T07:17:53.339Z,95293.00
2023-05-19T07:18:53.409Z,95291.00
2023-05-19T07:19:53.429Z,95293.00
2023-05-19T07:20:53.475Z,95294.00
2023-05-19T07:21:53.541Z,95292.00
2023-05-19T07:22:53.566Z,95290.00
2023-05-19T07:23:53.627Z,95291.00
2023-05-19T07:24:53.684Z,95286.00
2023-05-19T07:25:53.721Z,95292.00
2023-05-19T07:26:53.745Z,95289.00
2023-05-19T07:27:53.780Z,95285.00
2023-05-19T07:28:53.782Z,95284.00
2023-05-19T07:29:53.881Z,95282.00
2023-05-19T07:30:53.868Z,95281.00
2023-05-19T07:31:54.055Z,95279.00
2023-05-19T07:32:53.984Z,95280.00
2023-05-19T07:33:54.835Z,95279.00
2023-05-19T07:34:54.076Z,95277.00
2023-05-19T07:35:54.090Z,95276.00
2023-05-19T07:36:54.119Z,95274.00
2023-05-19T07:37:54.152Z,95274.00
2023-05-19T07:38:54.188Z,95275.00
2023-05-19T07:39:54.216Z,95273.00
2023-05-19T07:40:54.237Z,95273.00
2023-05-19T07:41:54.293Z,95272.00
2023-05-19T07:42:54.273Z,95271.00
2023-05-19T07:43:54.334Z,95266.00
2023-05-19T07:44:54.346Z,95270.00
2023-05-19T07:45:54.486Z,95271.00
2023-05-19T07:46:54.476Z,95269.00
2023-05-19T07:47:54.514Z,95271.00
2023-05-19T07:48:54.536Z,95269.00
2023-05-19T07:49:54.540Z,95270.00
2023-05-19T07:50:54.549Z,95264.00
2023-05-19T07:51:54.610Z,95267.00
2023-05-19T07:52:54.631Z,95265.00
2023-05-19T07:53:54.635Z,95263.00
2023-05-19T07:54:54.704Z,95262.00
2023-05-19T07:55:56.494Z,95261.00
2023-05-19T07:56:54.697Z,95261.00
2023-05-19T07:57:54.656Z,95261.00
2023-05-19T07:58:54.672Z,95258.00
2023-05-19T07:59:54.669Z,95257.00
2023-05-19T08:00:54.669Z,95258.00
2023-05-19T08:01:54.668Z,95256.00
2023-05-19T08:02:54.744Z,95258.00
2023-05-19T08:03:54.810Z,95259.00
2023-05-19T08:04:54.801Z,95256.00
2023-05-19T08:05:54.636Z,95257.00
2023-05-19T08:06:54.620Z,95255.00
2023-05-19T08:07:54.641Z,95252.00
2023-05-19T08:08:54.613Z,95251.00
2023-05-19T08:09:54.617Z,95249.00
2023-05-19T08:10:54.634Z,95251.00
2023-05-19T08:11:54.626Z,95250.00
2023-05-19T08:12:54.595Z,95252.00
2023-05-19T08:13:54.659Z,95250.00
2023-05-19T08:14:54.586Z,95249.00
2023-05-19T08:15:54.623Z,95248.00
2023-05-19T08:16:54.599Z,95249.00
2023-05-19T08:17:54.698Z,95248.00
2023-05-19T08:18:54.590Z,95248.00
2023-05-19T08:19:54.560Z,95243.00
2023-05-19T08:20:54.558Z,95247.00
2023-05-19T08:21:55.060Z,95248.00
2023-05-19T08:22:54.552Z,95246.00
2023-05-19T08:23:54.530Z,95245.00
2023-05-19T08:24:54.542Z,95242.00
2023-05-19T08:25:54.559Z,95242.00
2023-05-19T08:26:54.504Z,95242.00
2023-05-19T08:27:54.504Z,95240.00
2023-05-19T08:28:54.493Z,95239.00
2023-05-19T08:29:54.485Z,95239.00
2023-05-19T08:30:54.513Z,95240.00
2023-05-19T08:31:54.495Z,95237.00
2023-05-19T08:32:54.488Z,95234.00
2023-05-19T08:33:54.468Z,95233.00
2023-05-19T08:34:54.481Z,95232.00
2023-05-19T08:35:54.459Z,95229.00
2023-05-19T08:36:54.442Z,95229.00
2023-05-19T08:37:54.442Z,95227.00
2023-05-19T08:38:54.443Z,95225.00
2023-05-19T08:39:54.456Z,95225.00
2023-05-19T08:40:54.435Z,95222.00
2023-05-19T08:41:54.431Z,95222.00
2023-05-19T08:42:54.410Z,95223.00
2023-05-19T08:43:54.379Z,95224.00
2023-05-19T08:44:54.395Z,95224.00
2023-05-19T08:45:54.437Z,95225.00
2023-05-19T08:46:54.468Z,95223.00
2023-05-19T08:47:54.361Z,95224.00
2023-05-19T08:48:54.362Z,95220.00
2023-05-19T08:49:54.398Z,95215.00
2023-05-19T08:50:54.348Z,95212.00
2023-05-19T08:51:54.386Z,95209.00
2023-05-19T08:52:54.331Z,95209.00
2023-05-19T08:53:54.339Z,95209.00
2023-05-19T08:54:54.302Z,95207.00
2023-05-19T08:55:54.301Z,95203.00
2023-05-19T08:56:54.396Z,95203.00
2023-05-19T08:57:54.310Z,95203.00
2023-05-19T08:58:54.285Z,95201.00
2023-05-19T08:59:54.321Z,95203.00
2023-05-19T09:00:54.310Z,95201.00
2023-05-19T09:01:54.280Z,95202.00
2023-05-19T09:03:00.967Z,95202.00
2023-05-19T09:03:55.331Z,95201.00
2023-05-19T09:04:54.349Z,95201.00
2023-05-19T09:05:54.295Z,95197.00
2023-05-19T09:06:54.564Z,95198.00
2023-05-19T09:07:54.256Z,95199.00
2023-05-19T09:08:54.242Z,95199.00
2023-05-19T09:09:54.200Z,95198.00
2023-05-19T09:10:54.226Z,95199.00
2023-05-19T09:11:54.215Z,95200.00
2023-05-19T09:12:54.214Z,95196.00
2023-05-19T09:13:54.228Z,95193.00
2023-05-19T09:14:54.207Z,95190.00
2023-05-19T09:15:54.190Z,95189.00
2023-05-19T09:16:54.256Z,95187.00
2023-05-19T09:17:54.239Z,95187.00
2023-05-19T09:18:54.217Z,95185.00
2023-05-19T09:19:54.161Z,95183.00
2023-05-19T09:20:54.203Z,95180.00
2023-05-19T09:21:54.188Z,95178.00
2023-05-19T09:22:56.116Z,95176.00
2023-05-19T09:23:54.157Z,95175.00
2023-05-19T09:24:54.122Z,95176.00
2023-05-19T09:25:54.127Z,95174.00
2023-05-19T09:26:54.102Z,95175.00
2023-05-19T09:27:54.116Z,95172.00
2023-05-19T09:28:54.087Z,95170.00
2023-05-19T09:29:54.105Z,95168.00
2023-05-19T09:30:54.120Z,95167.00
2023-05-19T09:31:54.354Z,95167.00
2023-05-19T09:32:54.194Z,95166.00
2023-05-19T09:33:54.100Z,95164.00
2023-05-19T09:34:54.093Z,95161.00
2023-05-19T09:35:54.060Z,95160.00
2023-05-19T09:36:54.185Z,95159.00
2023-05-19T09:37:54.077Z,95158.00
2023-05-19T09:38:54.058Z,95158.00
2023-05-19T09:39:54.079Z,95152.00
2023-05-19T09:40:54.095Z,95151.00
2023-05-19T09:41:54.162Z,95151.00
2023-05-19T09:42:54.203Z,95149.00
2023-05-19T09:43:54.290Z,95148.00
2023-05-19T09:44:54.253Z,95148.00
2023-05-19T09:45:54.319Z,95149.00
2023-05-19T09:46:54.366Z,95149.00
2023-05-19T09:47:54.505Z,95151.00
2023-05-19T09:48:54.433Z,95155.00
2023-05-19T09:49:54.437Z,95147.00
2023-05-19T09:50:54.527Z,95142.00
2023-05-19T09:51:54.620Z,95142.00
2023-05-19T09:52:54.586Z,95140.00
2023-05-19T09:53:54.634Z,95141.00
2023-05-19T09:54:54.697Z,95138.00
2023-05-19T09:55:54.700Z,95136.00
2023-05-19T09:56:54.764Z,95136.00
2023-05-19T09:57:54.825Z,95135.00
2023-05-19T09:58:54.845Z,95136.00
2023-05-19T09:59:54.919Z,95129.00
2023-05-19T10:00:54.989Z,95125.00
2023-05-19T10:01:55.117Z,95127.00
2023-05-19T10:02:55.116Z,95120.00
2023-05-19T10:03:55.166Z,95118.00
2023-05-19T10:04:55.298Z,95119.00
2023-05-19T10:05:55.326Z,95116.00
2023-05-19T10:06:55.359Z,95111.00
2023-05-19T10:07:55.466Z,95113.00
2023-05-19T10:08:55.471Z,95111.00
2023-05-19T10:09:56.702Z,95106.00
2023-05-19T10:10:55.583Z,95106.00
2023-05-19T10:11:55.673Z,95103.00
2023-05-19T10:12:55.749Z,95102.00
2023-05-19T10:13:55.788Z,95097.00
2023-05-19T10:14:55.839Z,95097.00
2023-05-19T10:15:59.334Z,95102.00
2023-05-19T10:16:56.075Z,95097.00
2023-05-19T10:17:55.927Z,95093.00
2023-05-19T10:18:55.957Z,95099.00
2023-05-19T10:19:55.860Z,95096.00
2023-05-19T10:20:55.885Z,95096.00
2023-05-19T10:21:55.886Z,95090.00
2023-05-19T10:22:55.942Z,95090.00
2023-05-19T10:23:55.881Z,95093.00
2023-05-19T10:24:55.873Z,95087.00
2023-05-19T10:25:55.953Z,95087.00
2023-05-19T10:26:55.839Z,95083.00
2023-05-19T10:27:55.839Z,95085.00
2023-05-19T10:28:55.832Z,95080.00
2023-05-19T10:29:55.809Z,95084.00
2023-05-19T10:30:55.813Z,95083.00
2023-05-19T10:31:55.813Z,95082.00
2023-05-19T10:32:55.851Z,95078.00
2023-05-19T10:33:55.800Z,95076.00
2023-05-19T10:34:55.811Z,95076.00
2023-05-19T10:35:55.817Z,95075.00
2023-05-19T10:36:55.774Z,95070.00
2023-05-19T10:37:55.783Z,95067.00
2023-05-19T10:38:55.754Z,95067.00
2023-05-19T10:39:55.795Z,95064.00
2023-05-19T10:40:55.775Z,95063.00
2023-05-19T10:41:55.765Z,95062.00
2023-05-19T10:42:55.767Z,95061.00
2023-05-19T10:43:55.764Z,95064.00
2023-05-19T10:44:55.725Z,95060.00
2023-05-19T10:45:55.775Z,95061.00
2023-05-19T10:46:56.922Z,95060.00
2023-05-19T10:47:55.850Z,95057.00
2023-05-19T10:48:55.869Z,95058.00
2023-05-19T10:49:55.889Z,95055.00
2023-05-19T10:50:55.916Z,95058.00
2023-05-19T10:51:56.008Z,95056.00
2023-05-19T10:52:55.985Z,95054.00
2023-05-19T10:53:56.057Z,95054.00
2023-05-19T10:54:56.031Z,95051.00
2023-05-19T10:55:56.292Z,95051.00
2023-05-19T10:56:56.107Z,95051.00
2023-05-19T10:57:56.130Z,95046.00
2023-05-19T10:58:56.185Z,95047.00
2023-05-19T10:59:56.186Z,95048.00
2023-05-19T11:00:56.230Z,95050.00
2023-05-19T11:01:56.272Z,95045.00
2023-05-19T11:02:56.428Z,95044.00
2023-05-19T11:03:56.336Z,95041.00
2023-05-19T11:04:56.294Z,95037.00
2023-05-19T11:05:56.345Z,95038.00
2023-05-19T11:06:56.356Z,95044.00
2023-05-19T11:07:56.414Z,95039.00
2023-05-19T11:08:56.395Z,95041.00
2023-05-19T11:09:56.436Z,95041.00
2023-05-19T11:10:56.419Z,95039.00
2023-05-19T11:11:56.439Z,95039.00
2023-05-19T11:13:56.558Z,95038.00
2023-05-19T11:14:56.477Z,95038.00
2023-05-19T11:15:56.452Z,95039.00
2023-05-19T11:16:56.545Z,95039.00
2023-05-19T11:17:56.536Z,95039.00
2023-05-19T11:18:56.562Z,95034.00
2023-05-19T11:19:56.528Z,95033.00
2023-05-19T11:20:56.536Z,95031.00
2023-05-19T11:21:56.518Z,95032.00
2023-05-19T11:22:56.555Z,95027.00
2023-05-19T11:23:56.612Z,95033.00
2023-05-19T11:24:56.618Z,95031.00
2023-05-19T11:25:56.575Z,95031.00
2023-05-19T11:26:56.568Z,95025.00
2023-05-19T11:27:56.601Z,95025.00
2023-05-19T11:28:56.597Z,95022.00
2023-05-19T11:29:56.620Z,95018.00
2023-05-19T11:30:56.628Z,95014.00
2023-05-19T11:31:56.666Z,95015.00
2023-05-19T11:32:56.706Z,95014.00
2023-05-19T11:33:56.657Z,95009.00
2023-05-19T11:34:56.641Z,95004.00
2023-05-19T11:35:56.663Z,95005.00
2023-05-19T11:36:56.682Z,95004.00
2023-05-19T11:37:56.673Z,95000.00
2023-05-19T11:38:56.640Z,95002.00
2023-05-19T11:39:56.672Z,94997.00
2023-05-19T11:40:56.677Z,94999.00
2023-05-19T11:41:56.663Z,94994.00
2023-05-19T11:42:57.580Z,94997.00
2023-05-19T11:43:56.685Z,94995.00
2023-05-19T11:44:56.632Z,94994.00
2023-05-19T11:45:56.723Z,94994.00